createdAt,value
2022-09-29T00:01:27.679Z,8.05
2022-09-29T00:03:56.226Z,8.35
2022-09-29T00:06:25.152Z,8.23
2022-09-29T00:08:53.733Z,8.60
2022-09-29T00:11:22.429Z,8.65
2022-09-29T00:13:51.794Z,8.88
2022-09-29T00:16:21.822Z,7.82
2022-09-29T00:18:50.370Z,8.52
2022-09-29T00:21:20.634Z,8.23
2022-09-29T00:23:51.694Z,7.57
2022-09-29T00:26:23.953Z,7.88
2022-09-29T00:28:56.866Z,7.80
2022-09-29T00:31:30.338Z,7.40
2022-09-29T00:33:59.858Z,7.93
2022-09-29T00:36:30.220Z,7.40
2022-09-29T00:39:00.551Z,7.32
2022-09-29T00:41:33.902Z,7.57
2022-09-29T00:44:04.794Z,7.40
2022-09-29T00:46:46.383Z,7.35
2022-09-29T00:49:24.910Z,7.10
2022-09-29T00:52:01.212Z,7.88
2022-09-29T00:54:38.293Z,7.38
2022-09-29T00:57:09.708Z,7.25
2022-09-29T00:59:46.522Z,7.45
2022-09-29T01:02:20.361Z,7.70
2022-09-29T01:04:52.902Z,7.45
2022-09-29T01:07:23.561Z,6.72
2022-09-29T01:09:55.132Z,7.25
2022-09-29T01:12:25.109Z,7.50
2022-09-29T01:14:56.268Z,7.25
2022-09-29T01:17:26.947Z,7.10
2022-09-29T01:20:13.101Z,7.40
2022-09-29T01:23:34.259Z,7.35
2022-09-29T01:26:48.899Z,6.95
2022-09-29T01:29:57.474Z,7.22
2022-09-29T01:32:44.141Z,8.32
2022-09-29T01:35:22.909Z,8.27
2022-09-29T01:38:09.367Z,8.95
2022-09-29T01:40:51.626Z,9.38
2022-09-29T01:43:26.696Z,8.73
2022-09-29T01:46:05.944Z,9.15
2022-09-29T01:48:41.926Z,9.88
2022-09-29T01:51:18.349Z,9.68
2022-09-29T01:53:51.458Z,9.35
2022-09-29T01:56:27.752Z,9.05
2022-09-29T01:59:03.645Z,10.27
2022-09-29T02:01:40.496Z,9.15
2022-09-29T02:04:16.418Z,8.75
2022-09-29T02:06:53.083Z,8.38
2022-09-29T02:09:28.886Z,8.52
2022-09-29T02:12:01.950Z,7.97
2022-09-29T02:14:38.624Z,8.45
2022-09-29T02:17:13.512Z,8.23
2022-09-29T02:19:45.112Z,7.70
2022-09-29T02:22:14.954Z,7.85
2022-09-29T02:24:44.096Z,8.52
2022-09-29T02:27:14.415Z,8.20
2022-09-29T02:29:44.153Z,8.45
2022-09-29T02:32:14.260Z,8.43
2022-09-29T02:34:49.830Z,7.82
2022-09-29T02:37:41.682Z,8.27
2022-09-29T02:40:29.659Z,8.32
2022-09-29T02:43:37.011Z,7.88
2022-09-29T02:46:24.351Z,8.07
2022-09-29T02:49:26.306Z,7.82
2022-09-29T02:52:02.811Z,8.07
2022-09-29T02:54:53.224Z,7.88
2022-09-29T02:57:29.858Z,8.55
2022-09-29T03:00:09.826Z,7.75
2022-09-29T03:02:40.009Z,7.95
2022-09-29T03:05:12.660Z,8.23
2022-09-29T03:07:43.471Z,8.18
2022-09-29T03:10:14.830Z,7.78
2022-09-29T03:12:43.685Z,7.75
2022-09-29T03:15:13.266Z,8.45
2022-09-29T03:17:42.359Z,8.38
2022-09-29T03:20:11.547Z,8.40
2022-09-29T03:22:40.284Z,8.68
2022-09-29T03:25:10.608Z,9.40
2022-09-29T03:27:40.064Z,8.88
2022-09-29T03:30:12.960Z,9.55
2022-09-29T03:32:41.518Z,9.75
2022-09-29T03:35:11.692Z,9.30
2022-09-29T03:37:40.249Z,9.68
2022-09-29T03:40:11.910Z,9.95
2022-09-29T03:42:40.640Z,9.30
2022-09-29T03:45:10.191Z,10.52
2022-09-29T03:47:38.738Z,10.35
2022-09-29T03:50:08.817Z,10.30
2022-09-29T03:52:37.572Z,11.80
2022-09-29T03:55:07.176Z,11.00
2022-09-29T03:57:37.623Z,11.02
2022-09-29T04:00:07.252Z,10.38
2022-09-29T04:02:36.952Z,10.88
2022-09-29T04:05:06.676Z,11.18
2022-09-29T04:07:35.395Z,11.13
2022-09-29T04:10:04.556Z,11.20
2022-09-29T04:12:33.101Z,9.80
2022-09-29T04:15:03.007Z,9.68
2022-09-29T04:17:31.917Z,10.70
2022-09-29T04:20:00.724Z,9.82
2022-09-29T04:22:29.271Z,10.13
2022-09-29T04:24:58.394Z,9.90
2022-09-29T04:27:27.033Z,10.10
2022-09-29T04:29:55.535Z,9.68
2022-09-29T04:32:26.027Z,10.70
2022-09-29T04:34:54.827Z,10.50
2022-09-29T04:37:23.483Z,10.20
2022-09-29T04:39:53.245Z,10.70
2022-09-29T04:42:22.555Z,9.23
2022-09-29T04:44:51.105Z,9.55
2022-09-29T04:47:19.909Z,10.15
2022-09-29T04:49:49.747Z,10.02
2022-09-29T04:52:18.323Z,9.80
2022-09-29T04:54:47.080Z,10.07
2022-09-29T04:57:15.611Z,11.10
2022-09-29T04:59:44.255Z,9.35
2022-09-29T05:02:13.012Z,9.95
2022-09-29T05:04:41.574Z,10.52
2022-09-29T05:07:11.477Z,10.00
2022-09-29T05:09:40.207Z,10.05
2022-09-29T05:12:08.803Z,10.50
2022-09-29T05:14:37.318Z,10.00
2022-09-29T05:17:06.178Z,10.60
2022-09-29T05:19:34.911Z,10.63
2022-09-29T05:22:03.893Z,10.45
2022-09-29T05:24:33.994Z,9.38
2022-09-29T05:27:02.534Z,10.32
2022-09-29T05:29:31.122Z,9.68
2022-09-29T05:32:00.003Z,10.23
2022-09-29T05:34:28.582Z,9.75
2022-09-29T05:36:57.123Z,10.05
2022-09-29T05:39:26.045Z,9.90
2022-09-29T05:41:59.529Z,9.32
2022-09-29T05:44:28.667Z,9.63
2022-09-29T05:46:57.232Z,9.48
2022-09-29T05:49:25.782Z,10.43
2022-09-29T05:51:54.658Z,9.65
2022-09-29T05:54:24.070Z,9.38
2022-09-29T05:56:52.571Z,9.43
2022-09-29T05:59:22.890Z,9.70
2022-09-29T06:01:51.660Z,9.65
2022-09-29T06:04:20.299Z,9.00
2022-09-29T06:06:49.147Z,9.88
2022-09-29T06:09:18.366Z,8.73
2022-09-29T06:11:46.942Z,10.00
2022-09-29T06:14:16.017Z,10.20
2022-09-29T06:16:46.038Z,10.68
2022-09-29T06:19:14.837Z,9.48
2022-09-29T06:21:43.597Z,10.25
2022-09-29T06:24:13.022Z,10.55
2022-09-29T06:26:41.710Z,10.50
2022-09-29T06:29:10.726Z,10.85
2022-09-29T06:31:39.898Z,9.95
2022-09-29T06:34:11.350Z,10.70
2022-09-29T06:37:02.498Z,11.50
2022-09-29T06:39:31.891Z,11.63
2022-09-29T06:42:01.172Z,10.93
2022-09-29T06:44:30.730Z,10.75
2022-09-29T06:47:00.992Z,10.68
2022-09-29T06:49:31.294Z,10.20
2022-09-29T06:52:00.865Z,11.20
2022-09-29T06:54:31.042Z,10.35
2022-09-29T06:57:00.959Z,10.13
2022-09-29T06:59:29.522Z,10.57
2022-09-29T07:01:58.972Z,11.10
2022-09-29T07:04:27.708Z,11.52
2022-09-29T07:06:57.757Z,10.77
2022-09-29T07:09:26.638Z,13.13
2022-09-29T07:11:55.206Z,10.40
2022-09-29T07:18:56.059Z,9.57
2022-09-29T07:21:24.582Z,10.32
2022-09-29T07:23:57.623Z,10.15
2022-09-29T07:26:29.348Z,9.60
2022-09-29T07:28:58.334Z,10.43
2022-09-29T07:31:26.949Z,9.02
2022-09-29T07:33:57.584Z,9.80
2022-09-29T07:36:26.137Z,9.10
2022-09-29T07:43:28.584Z,9.52
2022-09-29T07:45:57.185Z,8.88
2022-09-29T07:48:30.559Z,8.45
2022-09-29T07:51:05.554Z,9.32
2022-09-29T07:53:36.332Z,8.70
2022-09-29T07:56:07.627Z,9.48
2022-09-29T07:58:39.329Z,8.93
2022-09-29T08:01:12.745Z,9.55
2022-09-29T08:03:43.411Z,9.25
2022-09-29T08:06:12.946Z,9.27
2022-09-29T08:08:51.228Z,9.07
2022-09-29T08:11:30.971Z,9.25
2022-09-29T08:14:03.259Z,8.80
2022-09-29T08:16:32.831Z,8.88
2022-09-29T08:19:02.532Z,9.13
2022-09-29T08:21:31.992Z,8.95
2022-09-29T08:24:02.459Z,9.18
2022-09-29T08:26:42.709Z,9.60
2022-09-29T08:29:17.065Z,9.15
2022-09-29T08:31:47.545Z,9.00
2022-09-29T08:34:17.659Z,9.48
2022-09-29T08:41:51.013Z,9.38
2022-09-29T08:44:38.301Z,9.60
2022-09-29T08:47:21.803Z,8.60
2022-09-29T08:49:56.780Z,7.90
2022-09-29T08:52:38.327Z,7.82
2022-09-29T08:55:29.151Z,8.70
2022-09-29T08:58:02.195Z,8.68
2022-09-29T09:00:42.254Z,8.65
2022-09-29T09:03:39.614Z,7.75
2022-09-29T09:06:26.385Z,7.82
2022-09-29T09:09:23.183Z,7.55
2022-09-29T09:12:34.826Z,8.77
2022-09-29T09:15:27.674Z,8.10
2022-09-29T09:18:25.904Z,7.97
2022-09-29T09:21:05.587Z,8.43
2022-09-29T09:28:15.997Z,8.13
2022-09-29T09:30:52.766Z,7.85
2022-09-29T09:33:32.627Z,7.55
2022-09-29T09:36:09.186Z,7.07
2022-09-29T09:38:54.895Z,7.57
2022-09-29T09:46:02.187Z,7.50
2022-09-29T09:48:39.896Z,7.43
2022-09-29T09:51:34.510Z,6.72
2022-09-29T09:54:12.971Z,8.27
2022-09-29T09:57:14.459Z,7.53
2022-09-29T10:00:00.446Z,7.28
2022-09-29T10:02:32.841Z,8.40
2022-09-29T10:05:07.369Z,8.23
2022-09-29T10:07:38.437Z,8.45
2022-09-29T10:10:17.889Z,8.57
2022-09-29T10:12:47.309Z,8.60
2022-09-29T10:15:24.578Z,7.93
2022-09-29T10:18:07.633Z,7.60
2022-09-29T10:25:19.042Z,8.88
2022-09-29T10:27:54.015Z,10.25
2022-09-29T10:30:32.599Z,10.48
2022-09-29T10:33:09.015Z,9.80
2022-09-29T10:35:44.749Z,8.20
2022-09-29T10:38:25.380Z,8.10
2022-09-29T10:41:02.258Z,8.23
2022-09-29T10:43:38.015Z,7.25
2022-09-29T10:46:38.105Z,8.05
2022-09-29T10:49:15.999Z,8.07
2022-09-29T10:51:56.085Z,8.77
2022-09-29T10:54:27.397Z,8.55
2022-09-29T10:56:59.617Z,9.15
2022-09-29T10:59:29.548Z,9.02
2022-09-29T11:02:03.162Z,9.05
2022-09-29T11:04:37.161Z,9.20
2022-09-29T11:07:13.508Z,9.90
2022-09-29T11:09:44.560Z,8.65
2022-09-29T11:12:33.555Z,8.20
2022-09-29T11:15:04.229Z,7.63
2022-09-29T11:17:39.638Z,8.80
2022-09-29T11:20:16.656Z,9.13
2022-09-29T11:23:20.249Z,10.18
2022-09-29T11:26:10.410Z,9.18
2022-09-29T11:29:15.085Z,10.32
2022-09-29T11:32:05.843Z,9.55
2022-09-29T11:34:56.877Z,8.90
2022-09-29T11:37:43.972Z,10.00
2022-09-29T11:40:20.070Z,10.82
2022-09-29T11:43:11.085Z,9.23
2022-09-29T11:45:57.016Z,9.73
2022-09-29T11:49:09.691Z,10.23
2022-09-29T11:52:02.982Z,10.77
2022-09-29T11:55:02.330Z,9.70
2022-09-29T11:57:52.143Z,9.23
2022-09-29T12:00:23.646Z,10.55
2022-09-29T12:03:28.905Z,9.43
2022-09-29T12:07:36.895Z,11.10
2022-09-29T12:10:34.084Z,9.20
2022-09-29T12:13:19.661Z,10.50
2022-09-29T12:15:57.655Z,10.55
2022-09-29T12:18:39.241Z,11.05
2022-09-29T12:21:15.545Z,9.93
2022-09-29T12:23:49.327Z,10.00
2022-09-29T12:26:23.117Z,10.20
2022-09-29T12:28:59.887Z,9.13
2022-09-29T12:31:35.535Z,9.88
2022-09-29T12:34:14.558Z,9.40
2022-09-29T12:36:53.687Z,10.23
2022-09-29T12:39:45.031Z,10.13
2022-09-29T12:42:34.189Z,10.48
2022-09-29T12:45:11.256Z,10.32
2022-09-29T12:47:58.163Z,9.00
2022-09-29T12:50:34.463Z,8.20
2022-09-29T12:53:16.281Z,8.43
2022-09-29T12:55:53.938Z,8.63
2022-09-29T12:58:32.948Z,8.77
2022-09-29T13:01:23.084Z,8.10
2022-09-29T13:08:58.893Z,8.65
2022-09-29T13:12:00.456Z,9.43
2022-09-29T13:15:09.356Z,8.07
2022-09-29T13:18:01.659Z,9.57
2022-09-29T13:21:19.217Z,10.23
2022-09-29T13:24:16.414Z,9.77
2022-09-29T13:27:26.400Z,10.60
2022-09-29T13:30:03.663Z,14.60
2022-09-29T13:32:36.102Z,12.60
2022-09-29T13:35:12.713Z,11.10
2022-09-29T13:37:49.508Z,11.25
2022-09-29T13:40:27.314Z,10.25
2022-09-29T13:42:57.959Z,10.07
2022-09-29T13:45:47.891Z,10.20
2022-09-29T13:48:49.896Z,10.00
2022-09-29T13:51:45.831Z,9.85
2022-09-29T13:54:33.957Z,9.55
2022-09-29T13:57:26.293Z,10.43
2022-09-29T14:00:27.659Z,10.77
2022-09-29T14:03:29.963Z,9.82
2022-09-29T14:06:39.151Z,9.48
2022-09-29T14:13:51.047Z,9.82
2022-09-29T14:16:37.426Z,10.40
2022-09-29T14:19:17.635Z,9.15
2022-09-29T14:21:51.738Z,9.30
2022-09-29T14:24:47.333Z,9.02
2022-09-29T14:27:31.834Z,9.38
2022-09-29T14:30:19.920Z,9.02
2022-09-29T14:32:56.770Z,9.70
2022-09-29T14:35:31.706Z,9.13
2022-09-29T14:38:07.954Z,9.77
2022-09-29T14:40:36.807Z,10.20
2022-09-29T14:43:16.416Z,9.75
2022-09-29T14:46:24.125Z,9.55
2022-09-29T14:49:43.480Z,9.13
2022-09-29T14:57:00.569Z,8.82
2022-09-29T14:59:53.654Z,9.20
2022-09-29T15:02:28.989Z,9.13
2022-09-29T15:04:58.806Z,8.52
2022-09-29T15:07:29.533Z,7.88
2022-09-29T15:10:00.529Z,8.68
2022-09-29T15:12:32.558Z,8.82
2022-09-29T15:15:02.323Z,8.18
2022-09-29T15:17:54.448Z,7.55
2022-09-29T15:20:33.094Z,7.95
2022-09-29T15:23:43.156Z,8.25
2022-09-29T15:26:15.721Z,8.77
2022-09-29T15:28:47.068Z,8.13
2022-09-29T15:31:29.002Z,9.13
2022-09-29T15:33:59.415Z,9.27
2022-09-29T15:36:34.745Z,10.40
2022-09-29T15:39:08.025Z,10.88
2022-09-29T15:41:37.173Z,10.38
2022-09-29T15:44:18.533Z,9.48
2022-09-29T15:46:52.180Z,9.30
2022-09-29T15:49:23.799Z,10.63
2022-09-29T15:52:01.571Z,9.88
2022-09-29T15:54:34.470Z,10.27
2022-09-29T15:57:21.134Z,10.63
2022-09-29T15:59:54.173Z,10.80
2022-09-29T16:02:30.914Z,11.07
2022-09-29T16:05:07.097Z,10.43
2022-09-29T16:07:40.658Z,10.60
2022-09-29T16:10:17.809Z,11.73
2022-09-29T16:12:54.740Z,9.32
2022-09-29T16:15:31.438Z,10.32
2022-09-29T16:18:04.651Z,9.52
2022-09-29T16:20:36.839Z,11.38
2022-09-29T16:23:10.696Z,11.82
2022-09-29T16:25:39.552Z,11.82
2022-09-29T16:28:26.707Z,11.27
2022-09-29T16:31:05.579Z,13.70
2022-09-29T16:33:36.704Z,11.55
2022-09-29T16:36:20.080Z,11.60
2022-09-29T16:38:51.573Z,11.45
2022-09-29T16:41:34.343Z,11.38
2022-09-29T16:44:09.311Z,12.65
2022-09-29T16:46:48.156Z,12.10
2022-09-29T16:53:52.844Z,14.45
2022-09-29T16:56:32.319Z,13.85
2022-09-29T16:59:12.439Z,16.35
2022-09-29T17:01:42.126Z,15.18
2022-09-29T17:04:13.097Z,14.88
2022-09-29T17:06:47.360Z,14.00
2022-09-29T17:09:29.024Z,14.35
2022-09-29T17:11:59.849Z,15.30
2022-09-29T17:14:30.913Z,15.98
2022-09-29T17:16:59.788Z,16.52
2022-09-29T17:19:28.436Z,18.35
2022-09-29T17:21:59.381Z,17.88
2022-09-29T17:24:30.330Z,14.98
2022-09-29T17:27:16.848Z,17.05
2022-09-29T17:29:46.127Z,16.95
2022-09-29T17:32:17.253Z,18.30
2022-09-29T17:34:45.785Z,18.10
2022-09-29T17:37:19.480Z,18.65
2022-09-29T17:39:49.610Z,16.27
2022-09-29T17:42:18.585Z,19.10
2022-09-29T17:44:48.140Z,19.23
2022-09-29T17:47:27.678Z,17.95
2022-09-29T17:49:57.293Z,18.90
2022-09-29T17:52:26.013Z,18.20
2022-09-29T17:54:55.971Z,18.60
2022-09-29T17:57:32.322Z,18.98
2022-09-29T18:00:01.266Z,18.55
2022-09-29T18:02:38.342Z,19.02
2022-09-29T18:05:07.847Z,19.10
2022-09-29T18:07:36.434Z,19.13
2022-09-29T18:10:20.138Z,19.35
2022-09-29T18:12:48.908Z,19.27
2022-09-29T18:15:17.770Z,19.23
2022-09-29T18:17:47.105Z,19.08
2022-09-29T18:20:19.541Z,19.33
2022-09-29T18:22:49.200Z,19.05
2022-09-29T18:29:51.031Z,20.35
2022-09-29T18:32:20.738Z,19.48
2022-09-29T18:34:49.270Z,17.10
2022-09-29T18:37:17.823Z,20.02
2022-09-29T18:39:46.584Z,21.25
2022-09-29T18:42:15.598Z,20.33
2022-09-29T18:44:44.533Z,21.85
2022-09-29T18:47:14.798Z,23.48
2022-09-29T18:49:43.589Z,23.48
2022-09-29T18:52:12.210Z,23.02
2022-09-29T18:54:40.954Z,24.85
2022-09-29T18:57:13.953Z,25.20
2022-09-29T18:59:42.888Z,26.13
2022-09-29T19:02:15.361Z,25.33
2022-09-29T19:04:44.179Z,29.27
2022-09-29T19:07:14.318Z,32.50
2022-09-29T19:09:43.150Z,27.92
2022-09-29T19:12:12.330Z,29.85
2022-09-29T19:14:41.049Z,31.65
2022-09-29T19:17:09.625Z,33.55
2022-09-29T19:19:39.695Z,32.25
2022-09-29T19:22:12.474Z,30.20
2022-09-29T19:24:41.242Z,28.50
2022-09-29T19:27:09.843Z,31.50
2022-09-29T19:29:38.577Z,30.50
2022-09-29T19:32:07.370Z,30.85
2022-09-29T19:34:36.134Z,29.30
2022-09-29T19:37:06.935Z,28.70
2022-09-29T19:39:35.858Z,27.52
2022-09-29T19:42:04.576Z,27.17
2022-09-29T19:44:37.238Z,26.05
2022-09-29T19:47:06.249Z,30.48
2022-09-29T19:49:35.357Z,31.30
2022-09-29T19:52:04.824Z,30.05
2022-09-29T19:54:38.106Z,31.33
2022-09-29T19:57:12.158Z,30.50
2022-09-29T19:59:43.977Z,34.63
2022-09-29T20:02:15.451Z,31.15
2022-09-29T20:04:44.822Z,30.67
2022-09-29T20:07:14.778Z,30.88
2022-09-29T20:14:16.553Z,30.63
2022-09-29T20:16:46.808Z,30.42
2022-09-29T20:19:18.771Z,32.38
2022-09-29T20:21:51.351Z,32.15
2022-09-29T20:24:25.435Z,33.67
2022-09-29T20:26:57.682Z,33.47
2022-09-29T20:29:27.608Z,33.28
2022-09-29T20:31:56.218Z,35.40
2022-09-29T20:34:24.962Z,34.50
2022-09-29T20:36:54.986Z,35.53
2022-09-29T20:39:26.154Z,35.20
2022-09-29T20:41:58.178Z,34.45
2022-09-29T20:44:27.260Z,34.38
2022-09-29T20:46:57.184Z,36.10
2022-09-29T20:49:27.309Z,32.97
2022-09-29T20:51:59.284Z,34.63
2022-09-29T20:54:29.667Z,34.58
2022-09-29T20:56:58.281Z,37.33
2022-09-29T20:59:26.895Z,35.85
2022-09-29T21:01:57.217Z,35.88
2022-09-29T21:04:26.993Z,35.53
2022-09-29T21:06:55.585Z,33.72
2022-09-29T21:09:26.492Z,32.40
2022-09-29T21:11:57.080Z,28.73
2022-09-29T21:14:27.917Z,31.92
2022-09-29T21:16:58.286Z,29.77
2022-09-29T21:19:27.218Z,35.45
2022-09-29T21:21:56.910Z,35.50
2022-09-29T21:24:26.047Z,34.88
2022-09-29T21:26:56.534Z,34.67
2022-09-29T21:29:25.042Z,32.88
2022-09-29T21:31:53.581Z,34.03
2022-09-29T21:34:22.525Z,32.58
2022-09-29T21:36:51.244Z,33.60
2022-09-29T21:39:20.083Z,32.28
2022-09-29T21:41:49.136Z,33.00
2022-09-29T21:44:24.300Z,34.22
2022-09-29T21:46:53.469Z,36.40
2022-09-29T21:49:22.335Z,31.67
2022-09-29T21:51:52.106Z,33.47
2022-09-29T21:54:23.318Z,36.22
2022-09-29T21:56:53.372Z,38.10
2022-09-29T21:59:24.291Z,37.85
2022-09-29T22:01:53.381Z,38.88
2022-09-29T22:04:23.150Z,38.22
2022-09-29T22:06:52.167Z,37.08
2022-09-29T22:09:22.899Z,35.63
2022-09-29T22:11:51.927Z,35.67
2022-09-29T22:14:24.494Z,33.05
2022-09-29T22:16:53.566Z,35.70
2022-09-29T22:19:23.739Z,34.65
2022-09-29T22:21:54.159Z,33.78
2022-09-29T22:24:26.657Z,33.85
2022-09-29T22:26:55.918Z,33.53
2022-09-29T22:29:27.235Z,32.67
2022-09-29T22:31:55.995Z,32.78
2022-09-29T22:34:24.665Z,31.52
2022-09-29T22:36:53.439Z,32.00
2022-09-29T22:39:22.323Z,31.42
2022-09-29T22:41:52.626Z,31.95
2022-09-29T22:44:21.600Z,30.50
2022-09-29T22:46:51.695Z,29.77
2022-09-29T22:49:21.827Z,29.20
2022-09-29T22:51:50.622Z,28.83
2022-09-29T22:54:19.131Z,29.20
2022-09-29T22:56:48.079Z,27.55
2022-09-29T22:59:17.143Z,28.55
2022-09-29T23:01:47.280Z,28.05
2022-09-29T23:04:17.287Z,29.85
2022-09-29T23:06:46.890Z,27.60
2022-09-29T23:09:16.062Z,27.33
2022-09-29T23:11:44.711Z,28.92
2022-09-29T23:14:15.168Z,27.52
2022-09-29T23:16:44.116Z,27.30
2022-09-29T23:19:12.919Z,27.80
2022-09-29T23:21:43.841Z,28.00
2022-09-29T23:24:13.059Z,28.05
2022-09-29T23:26:41.825Z,27.80
2022-09-29T23:29:11.975Z,27.67
2022-09-29T23:31:40.788Z,26.50
2022-09-29T23:34:13.742Z,26.15
2022-09-29T23:36:43.939Z,26.35
2022-09-29T23:39:13.982Z,25.35
2022-09-29T23:41:46.551Z,25.98
2022-09-29T23:44:19.342Z,26.40
2022-09-29T23:46:48.190Z,26.58
2022-09-29T23:49:20.349Z,26.20
2022-09-29T23:51:53.648Z,25.48
2022-09-29T23:54:24.970Z,24.63
2022-09-29T23:56:56.318Z,25.98
2022-09-29T23:59:25.744Z,22.67
